Time;durP1;ratioP1;P1;durP2;ratioP2;P2;SDS_P1;SDS_P2;PMS_P1;PMS_P2;Temp;Humidity;BMP_temperature;BMP_pressure;BME280_temperature;BME280_humidity;BME280_pressure;Samples;Min_cycle;Max_cycle;Signal;HPM_P1;HPM_P2
2022/07/08 00:00:25;;;;;;;9.77;3.07;;;15.80;16.30;;;;;;5014716;28;20679;-76
2022/07/08 00:02:51;;;;;;;9.30;2.93;;;15.80;18.40;;;;;;5014842;28;20646;-76
2022/07/08 00:05:16;;;;;;;7.70;2.57;;;15.70;19.30;;;;;;5015057;28;20194;-77
2022/07/08 00:07:42;;;;;;;8.67;2.77;;;15.80;18.20;;;;;;5015087;28;20634;-75
2022/07/08 00:10:08;;;;;;;6.53;2.87;;;15.60;20.20;;;;;;5014767;28;20165;-76
2022/07/08 00:12:34;;;;;;;6.27;2.50;;;15.40;24.40;;;;;;5030099;28;20272;-79
2022/07/08 00:15:00;;;;;;;8.77;2.23;;;15.50;24.10;;;;;;5014246;28;20178;-75
2022/07/08 00:17:27;;;;;;;11.13;2.80;;;15.50;24.30;;;;;;5029435;28;20170;-77
2022/07/08 00:19:52;;;;;;;9.67;2.90;;;15.40;25.30;;;;;;5014462;28;20491;-76
2022/07/08 00:22:18;;;;;;;7.40;2.80;;;15.50;26.00;;;;;;5014635;28;20174;-76
2022/07/08 00:24:44;;;;;;;9.53;3.33;;;15.40;25.20;;;;;;5014647;28;20171;-77
2022/07/08 00:27:10;;;;;;;9.77;2.83;;;15.50;25.70;;;;;;5013221;28;20183;-76
2022/07/08 00:29:36;;;;;;;10.97;2.70;;;15.50;23.70;;;;;;5014194;28;20178;-76
2022/07/08 00:32:02;;;;;;;7.80;2.90;;;15.70;21.30;;;;;;5014150;28;20210;-76
2022/07/08 00:34:28;;;;;;;10.43;3.20;;;15.60;19.40;;;;;;5014390;28;20645;-76
2022/07/08 00:36:54;;;;;;;8.23;3.03;;;15.80;17.80;;;;;;5029561;28;20183;-76
2022/07/08 00:39:19;;;;;;;9.80;3.10;;;15.80;16.10;;;;;;5029537;28;20201;-76
2022/07/08 00:41:45;;;;;;;7.13;2.70;;;15.80;17.90;;;;;;5014209;28;20171;-75
2022/07/08 00:44:11;;;;;;;9.27;3.33;;;15.80;15.20;;;;;;5014145;28;20589;-75
2022/07/08 00:46:36;;;;;;;11.40;3.10;;;15.90;13.90;;;;;;5014300;28;20200;-76
2022/07/08 00:49:02;;;;;;;8.07;2.80;;;15.80;14.70;;;;;;5014235;28;20635;-76
2022/07/08 00:51:29;;;;;;;9.07;3.00;;;15.70;15.00;;;;;;5014079;28;20198;-76
2022/07/08 00:53:56;;;;;;;11.63;3.53;;;15.60;18.20;;;;;;5014213;28;20175;-76
2022/07/08 00:56:22;;;;;;;11.63;3.07;;;15.60;20.80;;;;;;5014626;28;20173;-75
2022/07/08 00:58:49;;;;;;;10.23;2.77;;;15.60;21.60;;;;;;5015694;28;20174;-76
2022/07/08 01:01:16;;;;;;;8.57;2.73;;;15.70;16.60;;;;;;5015523;28;20182;-76
2022/07/08 01:03:43;;;;;;;8.77;3.57;;;15.80;17.00;;;;;;5018097;28;20224;-75
2022/07/08 01:06:09;;;;;;;8.90;3.23;;;15.80;15.60;;;;;;5021325;28;20167;-76
2022/07/08 01:08:34;;;;;;;9.23;2.90;;;15.70;15.60;;;;;;5022896;28;20188;-76
2022/07/08 01:11:00;;;;;;;11.03;3.10;;;15.70;19.60;;;;;;5017828;28;20262;-76
2022/07/08 01:13:26;;;;;;;8.00;2.90;;;15.60;19.30;;;;;;5013789;28;20261;-76
2022/07/08 01:15:52;;;;;;;12.53;2.90;;;15.50;20.40;;;;;;5017146;28;20642;-77
2022/07/08 01:18:36;;;;;;;10.87;3.13;;;15.50;22.50;;;;;;5015885;28;20261;-76
2022/07/08 01:21:02;;;;;;;9.40;2.90;;;15.50;23.30;;;;;;5028759;28;20170;-75
2022/07/08 01:23:28;;;;;;;10.50;3.00;;;15.60;22.20;;;;;;5013953;28;20265;-76
2022/07/08 01:25:55;;;;;;;10.33;3.07;;;15.60;20.60;;;;;;5016831;28;20206;-74
2022/07/08 01:28:21;;;;;;;11.97;3.20;;;15.50;21.00;;;;;;5015934;28;20201;-77
2022/07/08 01:30:47;;;;;;;8.60;2.60;;;15.50;24.10;;;;;;5013323;28;20171;-75
2022/07/08 01:33:13;;;;;;;9.93;2.73;;;15.60;22.90;;;;;;5013543;28;20226;-75
2022/07/08 01:35:38;;;;;;;11.93;2.97;;;15.50;23.10;;;;;;5013736;28;20197;-75
2022/07/08 01:38:04;;;;;;;7.80;2.80;;;15.50;22.60;;;;;;5013832;28;20169;-77
2022/07/08 01:40:30;;;;;;;9.10;2.67;;;15.50;23.20;;;;;;5013828;28;20174;-77
2022/07/08 01:42:55;;;;;;;8.80;2.67;;;15.40;23.90;;;;;;5015764;28;20656;-77
2022/07/08 01:45:21;;;;;;;7.33;2.93;;;15.30;26.40;;;;;;5013897;28;20174;-76
2022/07/08 01:47:47;;;;;;;10.87;3.30;;;15.20;27.80;;;;;;5028259;28;20752;-76
2022/07/08 01:50:12;;;;;;;8.83;2.83;;;15.30;28.70;;;;;;5013299;28;20700;-76
2022/07/08 01:52:38;;;;;;;9.37;3.40;;;15.30;26.60;;;;;;5028460;28;20217;-75
2022/07/08 01:55:05;;;;;;;12.17;3.00;;;15.30;27.10;;;;;;5013066;28;20197;-76
2022/07/08 01:57:31;;;;;;;9.07;2.87;;;15.30;29.40;;;;;;5013221;28;20175;-76
2022/07/08 01:59:57;;;;;;;9.00;3.07;;;15.30;30.80;;;;;;5013351;28;20170;-76
2022/07/08 02:02:24;;;;;;;6.73;2.83;;;15.20;31.80;;;;;;5012851;28;20176;-75
2022/07/08 02:04:50;;;;;;;10.20;3.40;;;15.10;35.00;;;;;;5013207;28;20173;-75
2022/07/08 02:07:15;;;;;;;9.47;2.90;;;15.10;35.30;;;;;;5012989;28;20262;-77
2022/07/08 02:09:41;;;;;;;9.17;2.77;;;15.30;31.90;;;;;;5013014;28;20573;-77
2022/07/08 02:12:20;;;;;;;8.27;2.93;;;15.10;36.40;;;;;;5012850;28;20202;-76
2022/07/08 02:14:47;;;;;;;7.57;2.60;;;15.20;35.40;;;;;;5013194;28;20202;-77
2022/07/08 02:17:14;;;;;;;10.03;3.23;;;15.20;36.10;;;;;;5013622;28;20174;-76
2022/07/08 02:19:41;;;;;;;14.73;3.43;;;15.10;40.00;;;;;;5013103;28;20182;-75
2022/07/08 02:22:07;;;;;;;10.40;2.87;;;15.10;39.40;;;;;;5013264;28;20197;-75
2022/07/08 02:24:32;;;;;;;11.03;3.60;;;15.00;41.80;;;;;;5027957;28;20619;-77
2022/07/08 02:26:58;;;;;;;8.77;3.27;;;15.20;40.00;;;;;;5013153;28;20167;-76
2022/07/08 02:29:24;;;;;;;8.43;3.10;;;15.30;34.80;;;;;;5012765;28;20649;-77
2022/07/08 02:31:49;;;;;;;12.00;3.03;;;15.20;34.50;;;;;;5012578;28;20206;-76
2022/07/08 02:34:15;;;;;;;12.13;3.50;;;15.20;36.70;;;;;;5012676;28;20619;-76
2022/07/08 02:36:41;;;;;;;10.00;3.30;;;15.20;34.90;;;;;;5012907;28;20180;-76
2022/07/08 02:39:06;;;;;;;12.80;3.50;;;15.30;34.00;;;;;;5027466;28;20182;-75
2022/07/08 02:41:32;;;;;;;8.70;3.00;;;15.10;37.10;;;;;;5029074;28;20206;-75
2022/07/08 02:43:58;;;;;;;10.57;3.53;;;15.10;38.30;;;;;;5016360;28;20164;-75
2022/07/08 02:46:23;;;;;;;11.10;3.10;;;15.10;38.50;;;;;;5016389;28;20180;-74
2022/07/08 02:48:49;;;;;;;12.00;3.80;;;15.20;36.50;;;;;;5016171;28;20197;-75
2022/07/08 02:51:15;;;;;;;11.40;3.30;;;15.20;36.50;;;;;;5016188;28;20205;-75
2022/07/08 02:53:40;;;;;;;9.87;3.30;;;15.20;36.30;;;;;;5015950;28;20180;-77
2022/07/08 02:56:06;;;;;;;9.63;3.13;;;15.10;39.70;;;;;;5023435;28;20163;-75
2022/07/08 02:58:32;;;;;;;8.80;3.10;;;15.20;42.80;;;;;;5020273;28;20618;-76
2022/07/08 03:00:58;;;;;;;10.77;2.93;;;15.20;38.60;;;;;;5016099;28;20174;-76
2022/07/08 03:03:24;;;;;;;10.00;3.40;;;15.40;35.90;;;;;;5015901;28;20675;-76
2022/07/08 03:05:50;;;;;;;12.77;3.13;;;15.30;35.60;;;;;;5031402;28;20277;-76
2022/07/08 03:08:15;;;;;;;7.93;2.97;;;15.20;37.30;;;;;;5015569;28;20228;-79
2022/07/08 03:10:41;;;;;;;7.57;2.70;;;15.30;32.80;;;;;;5015857;28;20177;-75
2022/07/08 03:13:07;;;;;;;8.30;2.80;;;15.30;33.90;;;;;;5016062;28;20215;-76
2022/07/08 03:15:33;;;;;;;7.67;2.93;;;15.30;34.20;;;;;;5015904;28;20177;-82
2022/07/08 03:18:00;;;;;;;8.53;2.87;;;15.30;34.00;;;;;;5015751;28;20183;-75
2022/07/08 03:20:26;;;;;;;8.90;3.17;;;15.30;32.60;;;;;;5015691;28;20170;-75
2022/07/08 03:22:51;;;;;;;7.40;2.60;;;15.20;33.40;;;;;;5015443;28;20177;-76
2022/07/08 03:25:17;;;;;;;12.93;3.40;;;15.20;36.50;;;;;;5015532;28;20255;-76
2022/07/08 03:27:44;;;;;;;7.80;2.90;;;15.20;35.50;;;;;;5015448;28;20174;-79
2022/07/08 03:30:10;;;;;;;8.57;3.23;;;15.30;37.60;;;;;;5015325;28;20188;-77
2022/07/08 03:32:35;;;;;;;11.50;2.90;;;15.20;38.80;;;;;;5015468;28;20281;-75
2022/07/08 03:35:01;;;;;;;13.43;3.20;;;15.20;38.80;;;;;;5015670;28;20170;-75
2022/07/08 03:37:27;;;;;;;10.50;3.50;;;15.10;42.70;;;;;;5015429;28;20682;-75
2022/07/08 03:39:55;;;;;;;12.07;3.63;;;15.10;45.10;;;;;;5015497;28;20256;-75
2022/07/08 03:42:21;;;;;;;8.00;2.83;;;15.20;44.10;;;;;;5015418;28;20166;-78
2022/07/08 03:44:47;;;;;;;10.50;3.17;;;15.20;41.50;;;;;;5015448;28;20257;-75
2022/07/08 03:47:13;;;;;;;9.47;3.50;;;15.30;39.60;;;;;;5015328;28;20647;-76
2022/07/08 03:49:39;;;;;;;10.53;3.87;;;15.30;40.50;;;;;;5016333;28;20174;-76
2022/07/08 03:52:05;;;;;;;14.50;3.63;;;15.30;38.20;;;;;;5019693;28;20232;-75
2022/07/08 03:54:31;;;;;;;10.73;3.80;;;15.40;32.00;;;;;;5023325;28;20237;-76
2022/07/08 03:56:57;;;;;;;12.33;3.80;;;15.30;34.30;;;;;;5015226;28;20661;-76
2022/07/08 03:59:23;;;;;;;10.83;3.70;;;15.20;38.00;;;;;;5015098;28;20171;-76
2022/07/08 04:01:48;;;;;;;8.93;3.70;;;15.20;39.90;;;;;;5015130;28;20186;-75
2022/07/08 04:04:14;;;;;;;11.67;3.90;;;15.20;41.10;;;;;;5015461;28;20436;-77
2022/07/08 04:06:40;;;;;;;9.90;3.87;;;15.20;42.40;;;;;;5014779;28;20174;-76
2022/07/08 04:09:06;;;;;;;10.13;3.47;;;15.20;41.90;;;;;;5016285;28;20170;-75
2022/07/08 04:11:32;;;;;;;10.07;4.03;;;15.30;40.90;;;;;;5033557;28;20615;-76
2022/07/08 04:13:57;;;;;;;9.60;4.27;;;15.40;36.60;;;;;;5015899;28;20216;-76
2022/07/08 04:16:23;;;;;;;14.70;4.27;;;15.50;33.70;;;;;;5014956;28;20516;-77
2022/07/08 04:18:49;;;;;;;11.03;4.10;;;15.40;31.70;;;;;;5015755;28;20178;-76
2022/07/08 04:21:15;;;;;;;11.93;4.17;;;15.30;33.40;;;;;;5019509;28;20239;-75
2022/07/08 04:23:41;;;;;;;9.87;4.27;;;15.30;35.50;;;;;;5025066;28;20172;-74
2022/07/08 04:26:07;;;;;;;10.90;4.23;;;15.30;36.20;;;;;;5022952;28;20172;-75
2022/07/08 04:28:33;;;;;;;9.20;3.90;;;15.10;40.70;;;;;;5025054;28;20196;-75
2022/07/08 04:30:59;;;;;;;11.90;4.30;;;15.10;45.00;;;;;;5021118;28;20227;-76
2022/07/08 04:33:25;;;;;;;12.90;4.03;;;15.10;48.30;;;;;;5029949;28;20214;-76
2022/07/08 04:35:50;;;;;;;9.63;3.93;;;15.30;47.00;;;;;;5019025;28;20201;-76
2022/07/08 04:38:16;;;;;;;10.17;4.10;;;15.40;39.40;;;;;;5022789;28;20264;-76
2022/07/08 04:40:42;;;;;;;12.63;3.93;;;15.60;37.80;;;;;;5014636;28;20253;-76
2022/07/08 04:43:09;;;;;;;15.50;4.13;;;15.60;37.20;;;;;;5014352;28;20596;-76
2022/07/08 04:45:34;;;;;;;10.07;3.90;;;15.70;35.10;;;;;;5014375;28;20174;-77
2022/07/08 04:48:00;;;;;;;12.57;4.20;;;15.70;29.30;;;;;;5014123;28;20541;-77
2022/07/08 04:50:26;;;;;;;11.10;4.17;;;15.80;29.00;;;;;;5013921;28;20182;-75
2022/07/08 04:52:52;;;;;;;12.17;4.30;;;15.80;30.00;;;;;;5013835;28;20210;-77
2022/07/08 04:55:31;;;;;;;13.87;3.73;;;15.80;29.90;;;;;;5014267;28;20174;-76
2022/07/08 04:58:02;;;;;;;12.20;4.30;;;15.90;31.50;;;;;;5029168;28;20562;-75
2022/07/08 05:00:28;;;;;;;17.87;4.67;;;16.00;31.40;;;;;;5014287;28;20167;-76
2022/07/08 05:02:54;;;;;;;11.00;4.63;;;16.10;27.50;;;;;;5013988;28;20300;-77
2022/07/08 05:05:21;;;;;;;11.70;4.83;;;16.20;20.80;;;;;;5013744;28;20716;-76
2022/07/08 05:07:50;;;;;;;10.90;4.43;;;16.30;16.80;;;;;;5013592;28;20649;-74
2022/07/08 05:10:16;;;;;;;11.07;4.33;;;16.20;20.70;;;;;;5014016;28;20627;-76
2022/07/08 05:12:43;;;;;;;11.13;4.30;;;16.10;23.70;;;;;;5013820;28;20209;-77
2022/07/08 05:15:09;;;;;;;11.27;3.87;;;16.20;24.20;;;;;;5014213;28;20607;-76
2022/07/08 05:17:35;;;;;;;14.33;4.53;;;16.20;24.10;;;;;;5013771;28;20249;-76
2022/07/08 05:20:00;;;;;;;10.57;4.33;;;16.30;23.70;;;;;;5013692;28;20174;-75
2022/07/08 05:22:26;;;;;;;8.87;3.93;;;16.30;20.80;;;;;;5013779;28;20180;-76
2022/07/08 05:24:52;;;;;;;12.77;4.30;;;16.30;19.40;;;;;;5013883;28;20249;-82
2022/07/08 05:27:17;;;;;;;13.03;5.10;;;16.30;16.90;;;;;;5013828;28;20580;-76
2022/07/08 05:29:43;;;;;;;15.30;4.63;;;16.30;20.40;;;;;;5028686;28;20648;-77
2022/07/08 05:32:08;;;;;;;19.70;4.90;;;16.30;17.90;;;;;;5013298;28;20260;-77
2022/07/08 05:34:34;;;;;;;11.80;4.53;;;16.40;17.20;;;;;;5028542;28;20649;-76
2022/07/08 05:37:00;;;;;;;14.73;4.57;;;16.40;18.30;;;;;;5013424;28;20594;-76
2022/07/08 05:39:26;;;;;;;12.70;4.67;;;16.50;21.10;;;;;;5013794;28;20193;-76
2022/07/08 05:41:52;;;;;;;11.33;4.27;;;16.50;19.80;;;;;;5013486;28;20734;-77
2022/07/08 05:44:18;;;;;;;10.93;4.33;;;16.60;17.90;;;;;;5013836;28;20174;-75
2022/07/08 05:46:43;;;;;;;11.53;4.20;;;16.60;17.60;;;;;;5018354;28;20212;-76
2022/07/08 05:49:09;;;;;;;11.90;4.40;;;16.60;17.60;;;;;;5018456;28;20676;-76
2022/07/08 05:51:35;;;;;;;12.00;4.10;;;16.80;13.60;;;;;;5013509;28;20567;-76
2022/07/08 05:54:01;;;;;;;11.50;4.20;;;17.10;11.80;;;;;;5013130;28;20182;-77
2022/07/08 05:56:26;;;;;;;9.80;4.20;;;17.10;4.20;;;;;;5013428;28;20638;-76
2022/07/08 05:58:52;;;;;;;14.10;4.03;;;17.10;1.00;;;;;;5013240;28;20181;-76
2022/07/08 06:01:18;;;;;;;11.70;4.30;;;17.00;5.10;;;;;;5013137;28;20175;-76
2022/07/08 06:03:43;;;;;;;12.13;4.20;;;16.80;7.90;;;;;;5013214;28;20181;-76
2022/07/08 06:06:09;;;;;;;12.67;3.87;;;17.00;9.50;;;;;;5013344;28;20163;-77
2022/07/08 06:08:35;;;;;;;13.93;4.10;;;17.10;4.80;;;;;;5028239;28;20643;-76
2022/07/08 06:11:01;;;;;;;10.90;3.50;;;16.80;11.60;;;;;;5014199;28;20189;-76
2022/07/08 06:13:27;;;;;;;10.00;3.60;;;16.80;16.60;;;;;;5016932;28;20297;-76
2022/07/08 06:15:53;;;;;;;10.97;3.70;;;17.00;14.60;;;;;;5018217;28;20167;-77
2022/07/08 06:18:19;;;;;;;11.50;3.40;;;17.20;12.20;;;;;;5019202;28;20625;-76
2022/07/08 06:20:45;;;;;;;13.27;3.43;;;17.30;2.60;;;;;;5042403;28;20212;-76
2022/07/08 06:23:11;;;;;;;10.67;3.80;;;17.00;8.00;;;;;;5020129;28;20670;-77
2022/07/08 06:25:37;;;;;;;14.07;3.90;;;16.80;15.40;;;;;;5018039;28;20163;-79
2022/07/08 06:28:03;;;;;;;9.57;3.73;;;16.90;14.50;;;;;;5018227;28;20157;-75
2022/07/08 06:30:29;;;;;;;12.07;3.37;;;16.90;14.80;;;;;;5019776;28;20182;-79
2022/07/08 06:32:55;;;;;;;13.07;3.93;;;16.90;13.10;;;;;;5027290;28;20226;-80
2022/07/08 06:35:21;;;;;;;12.80;3.37;;;16.80;16.50;;;;;;5024439;28;20179;-75
2022/07/08 06:37:47;;;;;;;12.13;3.23;;;16.90;16.50;;;;;;5020391;28;20182;-75
2022/07/08 06:40:14;;;;;;;13.33;3.83;;;17.00;13.50;;;;;;5017245;28;20190;-77
2022/07/08 06:42:39;;;;;;;10.27;3.20;;;17.00;14.30;;;;;;5017027;28;20170;-76
2022/07/08 06:45:06;;;;;;;11.97;2.87;;;17.10;11.80;;;;;;5016586;28;20185;-77
2022/07/08 06:47:32;;;;;;;9.07;3.17;;;16.90;11.70;;;;;;5016517;28;20192;-76
2022/07/08 06:49:57;;;;;;;9.13;3.60;;;17.10;13.00;;;;;;5016617;28;20753;-76
2022/07/08 06:52:23;;;;;;;9.63;3.27;;;17.20;13.50;;;;;;5016621;28;20211;-75
2022/07/08 06:54:49;;;;;;;15.13;3.17;;;17.40;5.20;;;;;;5016653;28;20215;-76
2022/07/08 06:57:15;;;;;;;11.00;2.97;;;17.60;1.00;;;;;;5033507;28;20202;-76
2022/07/08 06:59:41;;;;;;;9.93;3.13;;;17.60;1.00;;;;;;5016515;28;20257;-77
2022/07/08 07:02:07;;;;;;;11.43;3.33;;;17.40;3.70;;;;;;5017307;28;20182;-77
2022/07/08 07:04:33;;;;;;;9.00;2.97;;;17.30;5.10;;;;;;5017100;28;20163;-82
2022/07/08 07:06:59;;;;;;;9.00;2.63;;;17.50;1.90;;;;;;5016323;28;20182;-76
2022/07/08 07:09:25;;;;;;;9.60;2.27;;;17.60;1.00;;;;;;5016462;28;20172;-82
2022/07/08 07:11:50;;;;;;;7.00;2.00;;;17.70;1.00;;;;;;5016998;28;20214;-76
2022/07/08 07:14:17;;;;;;;8.47;2.67;;;17.50;1.00;;;;;;5016448;28;20241;-74
2022/07/08 07:16:43;;;;;;;10.60;2.70;;;17.50;3.30;;;;;;5016593;28;20228;-77
2022/07/08 07:19:08;;;;;;;8.07;2.67;;;17.30;5.70;;;;;;5031564;28;20171;-75
2022/07/08 07:21:34;;;;;;;8.83;2.60;;;17.30;7.60;;;;;;5017062;28;20190;-76
2022/07/08 07:24:00;;;;;;;7.93;2.30;;;17.30;8.90;;;;;;5016680;28;20180;-76
2022/07/08 07:26:26;;;;;;;10.53;2.87;;;17.40;5.50;;;;;;5016796;28;20182;-76
2022/07/08 07:28:51;;;;;;;7.87;2.37;;;17.70;1.00;;;;;;5015671;28;20204;-81
2022/07/08 07:31:17;;;;;;;10.37;2.73;;;17.80;1.00;;;;;;5015535;28;20566;-76
2022/07/08 07:33:43;;;;;;;7.30;2.27;;;17.90;1.00;;;;;;5016145;28;20178;-76
2022/07/08 07:36:08;;;;;;;9.53;2.73;;;18.10;1.00;;;;;;5015725;28;20228;-78
2022/07/08 07:38:34;;;;;;;7.47;2.33;;;18.10;1.00;;;;;;5016812;28;20177;-77
2022/07/08 07:41:01;;;;;;;11.63;2.63;;;18.00;1.00;;;;;;5032934;28;20240;-77
2022/07/08 07:43:27;;;;;;;7.17;2.17;;;18.00;1.00;;;;;;5023374;28;20254;-75
2022/07/08 07:45:52;;;;;;;9.63;2.77;;;18.00;1.00;;;;;;5024710;28;20197;-77
2022/07/08 07:48:18;;;;;;;8.47;2.60;;;18.10;1.00;;;;;;5018138;28;20662;-77
2022/07/08 07:50:44;;;;;;;10.53;2.40;;;18.20;1.00;;;;;;5016028;28;20627;-76
2022/07/08 07:53:12;;;;;;;7.47;2.50;;;18.50;1.00;;;;;;5015407;28;20271;-79
2022/07/08 07:55:37;;;;;;;10.80;2.33;;;18.70;1.00;;;;;;5015666;28;20234;-77
2022/07/08 07:58:03;;;;;;;8.27;2.53;;;18.60;1.00;;;;;;5015610;28;20179;-77
2022/07/08 08:00:29;;;;;;;11.60;2.97;;;18.50;1.00;;;;;;5015471;28;20645;-77
2022/07/08 08:02:56;;;;;;;9.00;2.50;;;18.70;1.00;;;;;;5015211;28;20207;-77
2022/07/08 08:05:22;;;;;;;10.30;2.40;;;18.80;1.00;;;;;;5014963;28;20620;-76
2022/07/08 08:07:48;;;;;;;5.80;1.80;;;18.90;1.00;;;;;;5030352;28;20234;-77
2022/07/08 08:10:14;;;;;;;9.23;2.40;;;19.00;1.00;;;;;;5015263;28;20174;-77
2022/07/08 08:12:41;;;;;;;6.77;1.83;;;18.70;1.00;;;;;;5015199;28;20281;-81
2022/07/08 08:15:08;;;;;;;8.83;2.43;;;18.90;1.00;;;;;;5016334;28;20172;-77
2022/07/08 08:17:38;;;;;;;8.70;2.20;;;19.00;1.00;;;;;;5015661;28;20703;-76
2022/07/08 08:20:09;;;;;;;7.50;2.00;;;19.00;1.00;;;;;;5015136;28;20178;-77
2022/07/08 08:22:35;;;;;;;8.93;2.20;;;19.00;1.00;;;;;;5014952;28;20195;-76
2022/07/08 08:25:02;;;;;;;12.03;2.73;;;19.10;1.00;;;;;;5015123;28;20168;-78
2022/07/08 08:27:28;;;;;;;9.53;2.20;;;18.80;1.00;;;;;;5015388;28;20195;-76
2022/07/08 08:29:53;;;;;;;8.13;2.43;;;19.00;1.00;;;;;;5015117;28;20188;-76
2022/07/08 08:32:19;;;;;;;7.23;2.60;;;19.00;1.00;;;;;;5015340;28;20261;-76
2022/07/08 08:34:45;;;;;;;12.37;2.63;;;19.20;1.00;;;;;;5015721;28;20694;-75
2022/07/08 08:37:30;;;;;;;10.77;2.70;;;19.20;1.00;;;;;;5111377;27;20556;-76
2022/07/08 08:39:56;;;;;;;8.27;2.40;;;19.20;1.00;;;;;;5113355;28;20172;-76
2022/07/08 08:42:23;;;;;;;10.67;2.23;;;19.10;1.00;;;;;;5111625;28;20173;-77
2022/07/08 08:44:49;;;;;;;8.20;2.37;;;19.30;1.00;;;;;;5113094;28;20163;-77
2022/07/08 08:47:20;;;;;;;12.00;2.80;;;19.40;1.00;;;;;;5116543;28;20252;-76
2022/07/08 08:49:48;;;;;;;9.30;2.30;;;19.40;1.00;;;;;;5113486;28;20228;-76
2022/07/08 08:52:16;;;;;;;8.60;2.13;;;19.60;1.00;;;;;;5111502;28;20192;-76
2022/07/08 08:54:44;;;;;;;10.97;2.70;;;19.60;1.00;;;;;;5111899;28;20265;-80
2022/07/08 08:57:10;;;;;;;13.07;3.30;;;19.60;1.00;;;;;;5112600;28;20205;-75
2022/07/08 08:59:37;;;;;;;9.20;2.40;;;19.50;1.00;;;;;;5113773;28;20174;-76
2022/07/08 09:02:04;;;;;;;6.33;2.23;;;19.70;1.00;;;;;;5115910;28;20174;-78
2022/07/08 09:04:33;;;;;;;11.00;2.43;;;20.00;1.00;;;;;;5122664;28;20171;-77
2022/07/08 09:07:00;;;;;;;7.93;2.17;;;20.10;1.00;;;;;;5121564;28;20174;-77
2022/07/08 09:09:26;;;;;;;8.73;2.03;;;20.30;1.00;;;;;;5111216;28;20187;-76
2022/07/08 09:11:53;;;;;;;10.17;2.47;;;20.50;1.00;;;;;;5111109;28;20186;-77
2022/07/08 09:14:21;;;;;;;8.90;2.53;;;20.80;1.00;;;;;;5108757;28;20167;-77
2022/07/08 09:17:19;;;;;;;8.33;2.30;;;21.00;1.00;;;;;;5098206;28;20248;-77
2022/07/08 09:19:48;;;;;;;7.87;2.60;;;20.90;1.00;;;;;;5091591;28;20180;-79
2022/07/08 09:22:14;;;;;;;9.50;2.60;;;20.90;1.00;;;;;;5094218;28;20169;-78
2022/07/08 09:24:40;;;;;;;9.33;2.63;;;21.10;1.00;;;;;;5091440;28;20171;-78
2022/07/08 09:27:08;;;;;;;7.80;2.40;;;21.20;1.00;;;;;;5091393;28;20661;-77
2022/07/08 09:29:34;;;;;;;8.40;2.53;;;21.30;1.00;;;;;;5090356;28;20166;-78
2022/07/08 09:32:14;;;;;;;5.53;1.70;;;21.00;1.00;;;;;;5090400;28;20279;-77
2022/07/08 09:34:41;;;;;;;8.10;2.13;;;20.90;1.00;;;;;;5090259;28;20259;-76
2022/07/08 09:37:18;;;;;;;9.23;2.40;;;20.90;1.00;;;;;;5089445;28;20209;-77
2022/07/08 09:39:46;;;;;;;13.30;2.33;;;20.90;1.00;;;;;;5089785;28;20173;-76
2022/07/08 09:42:14;;;;;;;7.43;2.40;;;21.00;1.00;;;;;;5088857;28;20173;-78
2022/07/08 09:44:40;;;;;;;7.20;2.43;;;21.00;1.00;;;;;;5089063;28;20181;-78
2022/07/08 09:47:14;;;;;;;9.17;2.47;;;20.80;1.00;;;;;;5084551;28;20616;-79
2022/07/08 09:49:42;;;;;;;8.83;2.53;;;20.80;1.00;;;;;;5076878;28;20183;-78
2022/07/08 09:52:09;;;;;;;11.00;2.90;;;20.70;1.00;;;;;;5076742;28;20246;-77
2022/07/08 09:54:35;;;;;;;10.93;2.70;;;20.80;1.00;;;;;;5076361;28;20225;-77
2022/07/08 09:57:01;;;;;;;8.37;2.93;;;20.90;1.00;;;;;;5075931;28;20251;-77
2022/07/08 09:59:28;;;;;;;13.87;2.80;;;20.90;1.00;;;;;;5076099;28;20248;-76
2022/07/08 10:01:54;;;;;;;11.93;2.40;;;21.00;1.00;;;;;;5076676;28;20690;-77
2022/07/08 10:04:23;;;;;;;10.90;3.00;;;21.10;1.00;;;;;;5079779;28;20529;-79
2022/07/08 10:06:50;;;;;;;8.60;2.50;;;21.40;1.00;;;;;;5086795;28;20193;-77
2022/07/08 10:09:16;;;;;;;10.40;2.83;;;21.60;1.00;;;;;;5078587;28;20164;-77
2022/07/08 10:11:44;;;;;;;9.13;2.77;;;21.50;1.00;;;;;;5077286;28;20228;-77
2022/07/08 10:14:10;;;;;;;7.97;2.63;;;21.70;1.00;;;;;;5077150;28;20176;-76
2022/07/08 10:16:38;;;;;;;10.07;3.50;;;21.60;1.00;;;;;;5076424;28;20202;-78
2022/07/08 10:19:08;;;;;;;9.40;3.20;;;21.20;1.00;;;;;;5075651;28;20574;-75
2022/07/08 10:21:36;;;;;;;9.43;3.13;;;21.20;1.00;;;;;;5076009;28;20167;-76
2022/07/08 10:24:03;;;;;;;8.23;2.70;;;21.20;1.00;;;;;;5075606;28;20262;-77
2022/07/08 10:26:35;;;;;;;9.57;2.90;;;21.20;1.00;;;;;;5075825;28;20168;-77
2022/07/08 10:29:04;;;;;;;7.27;2.60;;;21.10;1.00;;;;;;5077772;28;20601;-79
2022/07/08 10:31:47;;;;;;;9.40;2.97;;;21.30;1.00;;;;;;5087394;28;20180;-78
2022/07/08 10:34:18;;;;;;;7.87;2.93;;;21.50;1.00;;;;;;5096366;28;20614;-76
2022/07/08 10:36:51;;;;;;;7.77;2.80;;;21.60;1.00;;;;;;5095532;28;20218;-77
2022/07/08 10:39:27;;;;;;;9.50;3.40;;;21.80;1.00;;;;;;5096976;28;20183;-77
2022/07/08 10:41:58;;;;;;;8.47;2.87;;;21.60;1.00;;;;;;5097431;28;20161;-78
2022/07/08 10:44:43;;;;;;;7.93;2.57;;;21.30;1.00;;;;;;5097514;28;20157;-78
2022/07/08 10:47:29;;;;;;;10.60;3.20;;;21.40;1.00;;;;;;5095462;28;20195;-77
2022/07/08 10:50:06;;;;;;;6.73;2.57;;;21.40;1.00;;;;;;5097137;28;20201;-77
2022/07/08 10:52:41;;;;;;;8.00;2.60;;;21.40;1.00;;;;;;5097547;28;20248;-78
2022/07/08 10:55:12;;;;;;;6.93;2.50;;;21.60;1.00;;;;;;5097857;28;20170;-75
2022/07/08 10:57:38;;;;;;;7.70;2.67;;;21.60;1.00;;;;;;5107978;28;20200;-75
2022/07/08 11:00:14;;;;;;;8.03;2.63;;;21.80;1.00;;;;;;5107786;28;20169;-75
2022/07/08 11:02:45;;;;;;;9.47;3.50;;;21.90;1.00;;;;;;5107003;28;20214;-75
2022/07/08 11:05:38;;;;;;;5.93;2.73;;;21.90;1.00;;;;;;5107264;28;20241;-75
2022/07/08 11:08:24;;;;;;;9.13;3.07;;;21.80;1.00;;;;;;5101108;28;20641;-78
2022/07/08 11:10:55;;;;;;;7.20;2.50;;;21.80;1.00;;;;;;5095882;28;20189;-79
2022/07/08 11:13:22;;;;;;;9.43;2.97;;;22.00;1.00;;;;;;5098349;28;20170;-76
2022/07/08 11:15:48;;;;;;;6.70;2.30;;;22.30;1.00;;;;;;5114359;28;20209;-76
2022/07/08 11:18:25;;;;;;;6.83;2.70;;;22.50;1.00;;;;;;5104115;28;20177;-78
2022/07/08 11:21:02;;;;;;;6.50;2.50;;;22.50;1.00;;;;;;5093686;28;20206;-76
2022/07/08 11:23:32;;;;;;;5.63;2.37;;;22.60;1.00;;;;;;5094232;28;20208;-76
2022/07/08 11:25:59;;;;;;;11.37;3.20;;;22.70;1.00;;;;;;5093992;28;20183;-77
2022/07/08 11:28:25;;;;;;;10.03;3.17;;;22.70;1.00;;;;;;5095381;28;20184;-77
2022/07/08 11:30:53;;;;;;;9.70;3.40;;;22.60;1.00;;;;;;5097327;28;20168;-77
2022/07/08 11:33:18;;;;;;;8.87;2.90;;;22.60;1.00;;;;;;5111111;28;20163;-76
2022/07/08 11:35:44;;;;;;;11.23;2.80;;;22.50;1.00;;;;;;5104848;28;20320;-76
2022/07/08 11:38:10;;;;;;;6.90;2.50;;;22.50;1.00;;;;;;5096664;28;20177;-77
2022/07/08 11:40:42;;;;;;;7.80;2.80;;;22.50;1.00;;;;;;5094549;28;20228;-81
2022/07/08 11:43:21;;;;;;;7.30;2.77;;;22.30;1.00;;;;;;5097319;28;20166;-78
2022/07/08 11:45:46;;;;;;;10.80;2.90;;;22.40;1.00;;;;;;5094491;28;20185;-78
2022/07/08 11:48:12;;;;;;;7.03;3.10;;;22.40;1.00;;;;;;5094408;28;20183;-79
2022/07/08 11:50:48;;;;;;;11.10;2.97;;;22.70;1.00;;;;;;5098731;28;20262;-77
2022/07/08 11:53:23;;;;;;;7.77;2.50;;;22.90;1.00;;;;;;5097081;28;20176;-77
2022/07/08 11:55:49;;;;;;;8.87;2.13;;;23.00;1.00;;;;;;5095702;28;20240;-78
2022/07/08 11:58:22;;;;;;;9.57;3.17;;;23.20;1.00;;;;;;5096555;28;20180;-81
2022/07/08 12:00:49;;;;;;;5.83;2.97;;;23.10;1.00;;;;;;5095806;28;20178;-76
2022/07/08 12:03:15;;;;;;;7.50;2.90;;;23.00;1.00;;;;;;5095549;28;20642;-76
2022/07/08 12:05:41;;;;;;;8.63;2.90;;;22.80;1.00;;;;;;5095952;28;20274;-75
2022/07/08 12:08:11;;;;;;;7.20;3.00;;;23.00;1.00;;;;;;5095463;28;20178;-76
2022/07/08 12:10:37;;;;;;;6.20;2.57;;;23.10;1.00;;;;;;5093581;28;20183;-77
2022/07/08 12:13:02;;;;;;;6.10;2.27;;;23.30;1.00;;;;;;5099400;28;20653;-78
2022/07/08 12:15:35;;;;;;;5.83;2.20;;;23.50;99.90;;;;;;5102979;28;20237;-76
2022/07/08 12:18:04;;;;;;;6.73;2.30;;;23.40;99.90;;;;;;5101787;28;20238;-80
2022/07/08 12:20:34;;;;;;;6.13;2.20;;;23.20;99.90;;;;;;5095230;28;20225;-77
2022/07/08 12:23:00;;;;;;;7.40;2.00;;;23.20;99.90;;;;;;5094379;28;20175;-78
2022/07/08 12:25:26;;;;;;;7.13;2.17;;;23.40;99.90;;;;;;5094109;28;20175;-78
2022/07/08 12:27:58;;;;;;;7.97;2.13;;;23.80;99.90;;;;;;5093216;28;20168;-76
2022/07/08 12:30:29;;;;;;;7.23;2.30;;;23.90;99.90;;;;;;5093312;28;20182;-75
2022/07/08 12:33:03;;;;;;;7.57;2.27;;;23.80;99.90;;;;;;5092406;28;20623;-78
2022/07/08 12:35:35;;;;;;;6.17;1.97;;;24.10;99.90;;;;;;5093691;28;20203;-75
2022/07/08 12:38:08;;;;;;;5.03;1.97;;;24.40;99.90;;;;;;5093740;28;20183;-77
2022/07/08 12:40:43;;;;;;;5.60;1.97;;;24.90;99.90;;;;;;5094171;28;20181;-77
2022/07/08 12:43:10;;;;;;;7.17;2.23;;;24.90;33.10;;;;;;5094227;28;20168;-78
2022/07/08 12:45:37;;;;;;;4.83;1.57;;;24.50;1.00;;;;;;5094490;28;20171;-78
2022/07/08 12:48:03;;;;;;;5.67;2.07;;;24.20;99.90;;;;;;5093552;28;20191;-78